Aurora — ZCDW9 — position and weather

sailwx.info

Track history (hours):
 
Tides and Currents Weather Stations Pressure Air Temp Water Temp Dewpoint Dewpoint Depression Visibility Wind Speed Wind Dir Waves Ship Positions

Aurora (Bermuda)

Last reported at 2017-Apr-26 03:12 UTC. Time now 2017-Apr-26 11:52 UTC.
Position N 61°51' E 005°49'.

Length 271 m; draft 8.3 m.

Type: Ship. MMSI: 310555970.

Date/timePositionNaut miles runAvg speedWind from/ knotsBaromVisibWave heightAir tempDewpointWater temp
2017-Apr-26 03:12N 61°51' E 005°49'316.8
2017-Apr-26 03:00N 61°53' E 005°43'917.2
2017-Apr-26 02:30N 61°55' E 005°25'816.0
2017-Apr-26 02:00N 61°54' E 005°09'714.2
2017-Apr-26 01:30N 61°58' E 004°56'713.3
2017-Apr-26 01:00N 61°56' E 004°42'713.1
2017-Apr-26 00:30N 61°51' E 004°33'713.4
2017-Apr-26 00:00N 61°46' E 004°25'2912.1
2017-Apr-25 21:38N 61°17' E 004°18'215.8
2017-Apr-25 21:30N 61°16' E 004°21'816.7
2017-Apr-25 21:00N 61°14' E 004°38'917.7
2017-Apr-25 20:30N 61°13' E 004°57'714.3
2017-Apr-25 19:59N 61°09' E 005°08'917.3
2017-Apr-25 19:29N 61°04' E 005°23'917.8
2017-Apr-25 19:00N 61°07' E 005°40'917.6
2017-Apr-25 18:30N 61°08' E 005°58'917.5
2017-Apr-25 17:59N 61°07' E 006°16'816.8
2017-Apr-25 17:30N 61°08' E 006°33'714.5
2017-Apr-25 17:00N 61°10' E 006°47'816.9
2017-Apr-25 16:30N 61°04' E 007°01'815.6
2017-Apr-25 16:00N 60°57' E 007°07'2 0.2
2017-Apr-25 06:02N 60°56' E 007°10'011.4
2017-Apr-25 05:59N 60°56' E 007°10'612.6
2017-Apr-25 05:30N 61°01' E 007°02'714.1
2017-Apr-25 05:00N 61°07' E 006°55'815.4
2017-Apr-25 04:30N 61°11' E 006°41'612.2
2017-Apr-25 04:00N 61°07' E 006°30'815.6
2017-Apr-25 03:30N 61°07' E 006°14'816.2
2017-Apr-25 03:00N 61°08' E 005°58'815.9
2017-Apr-25 02:30N 61°07' E 005°41'816.2
2017-Apr-25 02:00N 61°04' E 005°26'815.7
2017-Apr-25 01:30N 61°06' E 005°11'815.4
2017-Apr-25 01:00N 61°03' E 004°56'815.4
2017-Apr-25 00:30N 60°58' E 004°44'714.4
2017-Apr-25 00:00N 60°51' E 004°37'713.9
2017-Apr-24 23:30N 60°46' E 004°29'714.0
2017-Apr-24 23:00N 60°39' E 004°23'9017.2
2017-Apr-24 17:45N 59°10' E 004°49'518.9
2017-Apr-24 17:30N 59°08' E 004°57'918.6
2017-Apr-24 17:01N 59°06' E 005°14'816.9
2017-Apr-24 16:30N 59°06' E 005°31'815.1
2017-Apr-24 16:01N 59°01' E 005°40'3 5.6
2017-Apr-24 15:30N 58°59' E 005°44'0 0.4
2017-Apr-24 14:59N 58°58' E 005°44'0 0.0
2017-Apr-24 14:29N 58°58' E 005°44'0 0.0
2017-Apr-24 13:29N 58°58' E 005°44'0 0.0
2017-Apr-24 12:59N 58°58' E 005°44'0 0.0
2017-Apr-24 12:29N 58°58' E 005°44'0 0.0
2017-Apr-24 11:59N 58°58' E 005°44'0 0.0
2017-Apr-24 11:29N 58°58' E 005°44'0 0.0
2017-Apr-24 10:59N 58°58' E 005°44'0 0.0
2017-Apr-24 10:29N 58°58' E 005°44'0 0.0
2017-Apr-24 09:59N 58°58' E 005°44'0 0.0
2017-Apr-24 09:29N 58°58' E 005°44'0 0.0
2017-Apr-24 08:59N 58°58' E 005°44'0 0.0
2017-Apr-24 08:29N 58°58' E 005°44'0 0.0
2017-Apr-24 07:59N 58°58' E 005°44'0 0.0
2017-Apr-24 07:29N 58°58' E 005°44'0 0.0
2017-Apr-24 06:59N 58°58' E 005°44'0 0.0
2017-Apr-24 06:29N 58°58' E 005°44'0 0.1
2017-Apr-24 06:00N 58°58' E 005°44'3 6.1
2017-Apr-24 05:31N 59°01' E 005°40'4 7.3
2017-Apr-24 05:00N 59°00' E 005°33'714.9
2017-Apr-24 04:30N 58°53' E 005°32'611.0
2017-Apr-24 04:00N 58°49' E 005°24'918.9
2017-Apr-24 03:30N 58°40' E 005°17'1019.7
2017-Apr-24 03:00N 58°30' E 005°13'1019.5
2017-Apr-24 02:30N 58°21' E 005°08'40720.1
2017-Apr-23 06:19N 51°44' E 002°33'619.6
2017-Apr-23 06:00N 51°39' E 002°27'1019.5
2017-Apr-23 05:30N 51°32' E 002°17'1019.4
2017-Apr-23 05:00N 51°24' E 002°08'1019.2
2017-Apr-23 04:30N 51°15' E 002°06'919.0
2017-Apr-23 04:00N 51°10' E 001°52'918.6
2017-Apr-23 03:30N 51°04' E 001°41'918.9
2017-Apr-23 03:00N 50°57' E 001°31'918.8
2017-Apr-23 02:30N 50°49' E 001°24'1325.8
2017-Apr-23 02:00N 50°36' E 001°18'317.4 060 / 141028.410.8 8.7 6.310.0
2017-Apr-23 01:50N 50°38' E 001°14'1819.5
2017-Apr-23 00:53N 50°29' E 000°49'819.6
2017-Apr-23 00:29N 50°27' E 000°37'919.5
2017-Apr-23 00:00N 50°23' E 000°23'1019.4
2017-Apr-22 23:30N 50°21' E 000°09'918.7
2017-Apr-22 23:00N 50°23' W 000°05'1020.0
2017-Apr-22 22:30N 50°28' W 000°19'1019.5
2017-Apr-22 22:00N 50°30' W 000°34'918.8
2017-Apr-22 21:30N 50°35' W 000°47'816.9
2017-Apr-22 21:00N 50°40' W 000°57'510.9
2017-Apr-22 20:31N 50°44' W 001°03'815.6
2017-Apr-22 20:01N 50°46' W 001°15'510.0
2017-Apr-22 19:31N 50°50' W 001°19'5 9.0
2017-Apr-22 19:01N 50°53' W 001°25'1 2.1
2017-Apr-22 18:29N 50°54' W 001°26'0 0.0
2017-Apr-22 17:59N 50°54' W 001°26'0 0.0
2017-Apr-22 17:29N 50°54' W 001°26'0 0.0
2017-Apr-22 16:59N 50°54' W 001°26'0 0.0
2017-Apr-22 16:29N 50°54' W 001°26'0 0.0
2017-Apr-22 15:59N 50°54' W 001°26'0 0.0
2017-Apr-22 15:29N 50°54' W 001°26'0 0.0
2017-Apr-22 14:59N 50°54' W 001°26'0 0.0
2017-Apr-22 14:29N 50°54' W 001°26'0 0.0
2017-Apr-22 13:29N 50°54' W 001°26'0 0.0
2017-Apr-22 12:59N 50°54' W 001°26'0 0.0
2017-Apr-22 12:29N 50°54' W 001°26'0 0.0
2017-Apr-22 11:59N 50°54' W 001°26'0 0.0
2017-Apr-22 11:29N 50°54' W 001°26'0 0.0
2017-Apr-22 10:59N 50°54' W 001°26'0 0.0
2017-Apr-22 10:29N 50°54' W 001°26'0 0.0
2017-Apr-22 09:59N 50°54' W 001°26'0 0.0
2017-Apr-22 09:29N 50°54' W 001°26'0 0.0
2017-Apr-22 08:53N 50°54' W 001°26'0 0.0
2017-Apr-22 08:29N 50°54' W 001°26'0 0.0
2017-Apr-22 07:59N 50°54' W 001°26'0 0.0
2017-Apr-22 07:29N 50°54' W 001°26'0 0.0
2017-Apr-22 06:59N 50°54' W 001°26'0 0.0
2017-Apr-22 06:29N 50°54' W 001°26'0 0.0
2017-Apr-22 05:59N 50°54' W 001°26'0 0.0
2017-Apr-22 05:23N 50°54' W 001°26'0 0.0
2017-Apr-22 05:00N 50°54' W 001°26'0 0.2
2017-Apr-22 04:30N 50°54' W 001°26'3 6.6
2017-Apr-22 04:01N 50°52' W 001°22'5 9.6
2017-Apr-22 03:31N 50°48' W 001°18'5 9.7
2017-Apr-22 03:00N 50°46' W 001°11'815.4
2017-Apr-22 02:30N 50°43' W 000°60'611.7
2017-Apr-22 02:00N 50°37' W 000°59'714.5
2017-Apr-22 01:31N 50°31' W 001°06'815.8
2017-Apr-22 01:00N 50°29' W 001°18'816.7
2017-Apr-22 00:30N 50°26' W 001°31'917.2
2017-Apr-22 00:00N 50°24' W 001°44'916.9
2017-Apr-21 23:30N 50°22' W 001°56'916.6
2017-Apr-21 22:59N 50°19' W 002°09'816.0
2017-Apr-21 22:30N 50°17' W 002°21'919.1
2017-Apr-21 22:00N 50°14' W 002°35'1121.4
2017-Apr-21 21:30N 50°12' W 002°51'1121.4
2017-Apr-21 21:00N 50°08' W 003°07'1121.8
2017-Apr-21 20:30N 50°03' W 003°22'1121.7
2017-Apr-21 20:00N 49°57' W 003°36'1121.8
2017-Apr-21 19:30N 49°51' W 003°50'1121.8
2017-Apr-21 19:00N 49°46' W 004°05'5386.1
2017-Apr-21 19:00N 49°42' W 004°00'1325.9 320 / 121031.110.8 12.5 9.912.0
2017-Apr-21 18:30N 49°41' W 004°19'1821.1
2017-Apr-21 17:40N 49°32' W 004°43'1221.0
2017-Apr-21 17:07N 49°26' W 004°58'220.8
2017-Apr-21 17:00N 49°24' W 005°01'1020.7
2017-Apr-21 16:30N 49°18' W 005°14'918.6
2017-Apr-21 16:00N 49°13' W 005°26'917.1
2017-Apr-21 15:30N 49°10' W 005°38'1019.6
2017-Apr-21 15:00N 49°05' W 005°50'1020.8
2017-Apr-21 14:31N 48°59' W 006°04'2120.9
2017-Apr-21 13:30N 48°48' W 006°30'1120.9
2017-Apr-21 13:00N 48°42' W 006°44'1020.9
2017-Apr-21 12:30N 48°36' W 006°57'1521.0
2017-Apr-21 11:48N 48°29' W 007°16'10120.9
2017-Apr-21 07:00N 47°30' W 009°18'20417.0 090 / 281029.710.8 12.0 8.812.0
2017-Apr-20 19:00N 45°30' W 013°18'33513.4 070 / 501022.910.8 12.0 9.012.0
2017-Apr-19 18:00N 41°54' W 019°12'16016.0 050 / 351018.510.8 14.511.815.0
2017-Apr-19 08:00N 40°06' W 021°48'15417.0 030 / 311019.610.8 13.811.016.0
2017-Apr-18 22:54N 38°23' W 024°16'717.0
2017-Apr-18 22:30N 38°18' W 024°22'917.2
2017-Apr-18 22:00N 38°12' W 024°30'917.4
2017-Apr-18 21:30N 38°05' W 024°37'917.6
2017-Apr-18 21:00N 37°59' W 024°45'917.8
2017-Apr-18 20:30N 37°53' W 024°53'917.4
2017-Apr-18 20:00N 37°47' W 025°01'816.7
2017-Apr-18 19:30N 37°41' W 025°09'917.3
2017-Apr-18 19:00N 37°41' W 025°20'816.7
2017-Apr-18 18:31N 37°41' W 025°30'714.5
2017-Apr-18 18:01N 37°44' W 025°38'1 2.2
2017-Apr-18 17:30N 37°44' W 025°40'0 0.0
2017-Apr-18 17:00N 37°44' W 025°40'0 0.0
2017-Apr-18 16:30N 37°44' W 025°40'0 0.0
2017-Apr-18 16:00N 37°44' W 025°40'0 0.0
2017-Apr-18 15:30N 37°44' W 025°40'0 0.0
2017-Apr-18 15:00N 37°44' W 025°40'0 0.0
2017-Apr-18 14:30N 37°44' W 025°40'0 0.0
2017-Apr-18 13:31N 37°44' W 025°40'0 0.0
2017-Apr-18 13:00N 37°44' W 025°40'0 0.0
2017-Apr-18 12:30N 37°44' W 025°40'0 0.0
2017-Apr-18 12:00N 37°44' W 025°40'0 0.0
2017-Apr-18 11:31N 37°44' W 025°40'0 0.0
2017-Apr-18 11:00N 37°44' W 025°40'0 0.0
2017-Apr-18 10:30N 37°44' W 025°40'0 0.0
2017-Apr-18 10:00N 37°44' W 025°40'0 0.0
2017-Apr-18 09:31N 37°44' W 025°40'0 0.0
2017-Apr-18 09:00N 37°44' W 025°40'0 0.0
2017-Apr-18 08:30N 37°44' W 025°40'0 0.0
2017-Apr-18 08:00N 37°44' W 025°40'0 0.3
2017-Apr-18 07:31N 37°44' W 025°40'1 2.1
2017-Apr-18 07:00N 37°43' W 025°39'611.3
2017-Apr-18 06:30N 37°39' W 025°44'815.7
2017-Apr-18 06:00N 37°35' W 025°53'815.7
2017-Apr-18 05:30N 37°31' W 026°01'815.9
2017-Apr-18 05:01N 37°27' W 026°10'917.4
2017-Apr-18 04:30N 37°23' W 026°20'917.2
2017-Apr-18 04:00N 37°19' W 026°29'917.0
2017-Apr-18 03:30N 37°14' W 026°38'917.1
2017-Apr-18 03:00N 37°10' W 026°47'817.0
2017-Apr-18 02:30N 37°06' W 026°57'816.7
2017-Apr-18 02:00N 37°02' W 027°06'1016.8
2017-Apr-18 01:26N 36°57' W 027°16'716.6
2017-Apr-18 01:00N 36°53' W 027°24'816.7
2017-Apr-18 00:30N 36°49' W 027°33'1416.9
2017-Apr-17 23:40N 36°42' W 027°48'716.8
2017-Apr-17 23:17N 36°38' W 027°55'23716.6
2017-Apr-17 09:00N 34°30' W 032°00'19616.4 140 / 171017.510.8 18.015.119.0
2017-Apr-16 21:00N 32°36' W 035°12'18717.0 150 / 251015.310.8 19.716.520.0
2017-Apr-16 10:00N 30°48' W 038°12'   160 / 231015.210.8 19.715.120.0
Track history (hours):
 
Tides and Currents Weather Stations Pressure Air Temp Water Temp Dewpoint Dewpoint Depression Visibility Wind Speed Wind Dir Waves Ship Positions

Aurora (Bermuda)

Last reported at 2017-Apr-26 03:12 UTC. Time now 2017-Apr-26 11:52 UTC.
Position N 61°51' E 005°49'.

Length 271 m; draft 8.3 m.

Type: Ship. MMSI: 310555970.

Date/timePositionNaut miles runAvg speedWind from/ knotsBaromVisibWave heightAir tempDewpointWater temp
2017-Apr-26 03:12N 61°51' E 005°49'316.8
2017-Apr-26 03:00N 61°53' E 005°43'917.2
2017-Apr-26 02:30N 61°55' E 005°25'816.0
2017-Apr-26 02:00N 61°54' E 005°09'714.2
2017-Apr-26 01:30N 61°58' E 004°56'713.3
2017-Apr-26 01:00N 61°56' E 004°42'713.1
2017-Apr-26 00:30N 61°51' E 004°33'713.4
2017-Apr-26 00:00N 61°46' E 004°25'2912.1
2017-Apr-25 21:38N 61°17' E 004°18'215.8
2017-Apr-25 21:30N 61°16' E 004°21'816.7
2017-Apr-25 21:00N 61°14' E 004°38'917.7
2017-Apr-25 20:30N 61°13' E 004°57'714.3
2017-Apr-25 19:59N 61°09' E 005°08'917.3
2017-Apr-25 19:29N 61°04' E 005°23'917.8
2017-Apr-25 19:00N 61°07' E 005°40'917.6
2017-Apr-25 18:30N 61°08' E 005°58'917.5
2017-Apr-25 17:59N 61°07' E 006°16'816.8
2017-Apr-25 17:30N 61°08' E 006°33'714.5
2017-Apr-25 17:00N 61°10' E 006°47'816.9
2017-Apr-25 16:30N 61°04' E 007°01'815.6
2017-Apr-25 16:00N 60°57' E 007°07'2 0.2
2017-Apr-25 06:02N 60°56' E 007°10'011.4
2017-Apr-25 05:59N 60°56' E 007°10'612.6
2017-Apr-25 05:30N 61°01' E 007°02'714.1
2017-Apr-25 05:00N 61°07' E 006°55'815.4
2017-Apr-25 04:30N 61°11' E 006°41'612.2
2017-Apr-25 04:00N 61°07' E 006°30'815.6
2017-Apr-25 03:30N 61°07' E 006°14'816.2
2017-Apr-25 03:00N 61°08' E 005°58'815.9
2017-Apr-25 02:30N 61°07' E 005°41'816.2
2017-Apr-25 02:00N 61°04' E 005°26'815.7
2017-Apr-25 01:30N 61°06' E 005°11'815.4
2017-Apr-25 01:00N 61°03' E 004°56'815.4
2017-Apr-25 00:30N 60°58' E 004°44'714.4
2017-Apr-25 00:00N 60°51' E 004°37'713.9
2017-Apr-24 23:30N 60°46' E 004°29'714.0
2017-Apr-24 23:00N 60°39' E 004°23'9017.2
2017-Apr-24 17:45N 59°10' E 004°49'518.9
2017-Apr-24 17:30N 59°08' E 004°57'918.6
2017-Apr-24 17:01N 59°06' E 005°14'816.9
2017-Apr-24 16:30N 59°06' E 005°31'815.1
2017-Apr-24 16:01N 59°01' E 005°40'3 5.6
2017-Apr-24 15:30N 58°59' E 005°44'0 0.4
2017-Apr-24 14:59N 58°58' E 005°44'0 0.0
2017-Apr-24 14:29N 58°58' E 005°44'0 0.0
2017-Apr-24 13:29N 58°58' E 005°44'0 0.0
2017-Apr-24 12:59N 58°58' E 005°44'0 0.0
2017-Apr-24 12:29N 58°58' E 005°44'0 0.0
2017-Apr-24 11:59N 58°58' E 005°44'0 0.0
2017-Apr-24 11:29N 58°58' E 005°44'0 0.0
2017-Apr-24 10:59N 58°58' E 005°44'0 0.0
2017-Apr-24 10:29N 58°58' E 005°44'0 0.0
2017-Apr-24 09:59N 58°58' E 005°44'0 0.0
2017-Apr-24 09:29N 58°58' E 005°44'0 0.0
2017-Apr-24 08:59N 58°58' E 005°44'0 0.0
2017-Apr-24 08:29N 58°58' E 005°44'0 0.0
2017-Apr-24 07:59N 58°58' E 005°44'0 0.0
2017-Apr-24 07:29N 58°58' E 005°44'0 0.0
2017-Apr-24 06:59N 58°58' E 005°44'0 0.0
2017-Apr-24 06:29N 58°58' E 005°44'0 0.1
2017-Apr-24 06:00N 58°58' E 005°44'3 6.1
2017-Apr-24 05:31N 59°01' E 005°40'4 7.3
2017-Apr-24 05:00N 59°00' E 005°33'714.9
2017-Apr-24 04:30N 58°53' E 005°32'611.0
2017-Apr-24 04:00N 58°49' E 005°24'918.9
2017-Apr-24 03:30N 58°40' E 005°17'1019.7
2017-Apr-24 03:00N 58°30' E 005°13'1019.5
2017-Apr-24 02:30N 58°21' E 005°08'40720.1
2017-Apr-23 06:19N 51°44' E 002°33'619.6
2017-Apr-23 06:00N 51°39' E 002°27'1019.5
2017-Apr-23 05:30N 51°32' E 002°17'1019.4
2017-Apr-23 05:00N 51°24' E 002°08'1019.2
2017-Apr-23 04:30N 51°15' E 002°06'919.0
2017-Apr-23 04:00N 51°10' E 001°52'918.6
2017-Apr-23 03:30N 51°04' E 001°41'918.9
2017-Apr-23 03:00N 50°57' E 001°31'918.8
2017-Apr-23 02:30N 50°49' E 001°24'1325.8
2017-Apr-23 02:00N 50°36' E 001°18'317.4 060 / 141028.410.8 8.7 6.310.0
2017-Apr-23 01:50N 50°38' E 001°14'1819.5
2017-Apr-23 00:53N 50°29' E 000°49'819.6
2017-Apr-23 00:29N 50°27' E 000°37'919.5
2017-Apr-23 00:00N 50°23' E 000°23'1019.4
2017-Apr-22 23:30N 50°21' E 000°09'918.7
2017-Apr-22 23:00N 50°23' W 000°05'1020.0
2017-Apr-22 22:30N 50°28' W 000°19'1019.5
2017-Apr-22 22:00N 50°30' W 000°34'918.8
2017-Apr-22 21:30N 50°35' W 000°47'816.9
2017-Apr-22 21:00N 50°40' W 000°57'510.9
2017-Apr-22 20:31N 50°44' W 001°03'815.6
2017-Apr-22 20:01N 50°46' W 001°15'510.0
2017-Apr-22 19:31N 50°50' W 001°19'5 9.0
2017-Apr-22 19:01N 50°53' W 001°25'1 2.1
2017-Apr-22 18:29N 50°54' W 001°26'0 0.0
2017-Apr-22 17:59N 50°54' W 001°26'0 0.0
2017-Apr-22 17:29N 50°54' W 001°26'0 0.0
2017-Apr-22 16:59N 50°54' W 001°26'0 0.0
2017-Apr-22 16:29N 50°54' W 001°26'0 0.0
2017-Apr-22 15:59N 50°54' W 001°26'0 0.0
2017-Apr-22 15:29N 50°54' W 001°26'0 0.0
2017-Apr-22 14:59N 50°54' W 001°26'0 0.0
2017-Apr-22 14:29N 50°54' W 001°26'0 0.0
2017-Apr-22 13:29N 50°54' W 001°26'0 0.0
2017-Apr-22 12:59N 50°54' W 001°26'0 0.0
2017-Apr-22 12:29N 50°54' W 001°26'0 0.0
2017-Apr-22 11:59N 50°54' W 001°26'0 0.0
2017-Apr-22 11:29N 50°54' W 001°26'0 0.0
2017-Apr-22 10:59N 50°54' W 001°26'0 0.0
2017-Apr-22 10:29N 50°54' W 001°26'0 0.0
2017-Apr-22 09:59N 50°54' W 001°26'0 0.0
2017-Apr-22 09:29N 50°54' W 001°26'0 0.0
2017-Apr-22 08:53N 50°54' W 001°26'0 0.0
2017-Apr-22 08:29N 50°54' W 001°26'0 0.0
2017-Apr-22 07:59N 50°54' W 001°26'0 0.0
2017-Apr-22 07:29N 50°54' W 001°26'0 0.0
2017-Apr-22 06:59N 50°54' W 001°26'0 0.0
2017-Apr-22 06:29N 50°54' W 001°26'0 0.0
2017-Apr-22 05:59N 50°54' W 001°26'0 0.0
2017-Apr-22 05:23N 50°54' W 001°26'0 0.0
2017-Apr-22 05:00N 50°54' W 001°26'0 0.2
2017-Apr-22 04:30N 50°54' W 001°26'3 6.6
2017-Apr-22 04:01N 50°52' W 001°22'5 9.6
2017-Apr-22 03:31N 50°48' W 001°18'5 9.7
2017-Apr-22 03:00N 50°46' W 001°11'815.4
2017-Apr-22 02:30N 50°43' W 000°60'611.7
2017-Apr-22 02:00N 50°37' W 000°59'714.5
2017-Apr-22 01:31N 50°31' W 001°06'815.8
2017-Apr-22 01:00N 50°29' W 001°18'816.7
2017-Apr-22 00:30N 50°26' W 001°31'917.2
2017-Apr-22 00:00N 50°24' W 001°44'916.9
2017-Apr-21 23:30N 50°22' W 001°56'916.6
2017-Apr-21 22:59N 50°19' W 002°09'816.0
2017-Apr-21 22:30N 50°17' W 002°21'919.1
2017-Apr-21 22:00N 50°14' W 002°35'1121.4
2017-Apr-21 21:30N 50°12' W 002°51'1121.4
2017-Apr-21 21:00N 50°08' W 003°07'1121.8
2017-Apr-21 20:30N 50°03' W 003°22'1121.7
2017-Apr-21 20:00N 49°57' W 003°36'1121.8
2017-Apr-21 19:30N 49°51' W 003°50'1121.8
2017-Apr-21 19:00N 49°46' W 004°05'5386.1
2017-Apr-21 19:00N 49°42' W 004°00'1325.9 320 / 121031.110.8 12.5 9.912.0
2017-Apr-21 18:30N 49°41' W 004°19'1821.1
2017-Apr-21 17:40N 49°32' W 004°43'1221.0
2017-Apr-21 17:07N 49°26' W 004°58'220.8
2017-Apr-21 17:00N 49°24' W 005°01'1020.7
2017-Apr-21 16:30N 49°18' W 005°14'918.6
2017-Apr-21 16:00N 49°13' W 005°26'917.1
2017-Apr-21 15:30N 49°10' W 005°38'1019.6
2017-Apr-21 15:00N 49°05' W 005°50'1020.8
2017-Apr-21 14:31N 48°59' W 006°04'2120.9
2017-Apr-21 13:30N 48°48' W 006°30'1120.9
2017-Apr-21 13:00N 48°42' W 006°44'1020.9
2017-Apr-21 12:30N 48°36' W 006°57'1521.0
2017-Apr-21 11:48N 48°29' W 007°16'10120.9
2017-Apr-21 07:00N 47°30' W 009°18'20417.0 090 / 281029.710.8 12.0 8.812.0
2017-Apr-20 19:00N 45°30' W 013°18'33513.4 070 / 501022.910.8 12.0 9.012.0
2017-Apr-19 18:00N 41°54' W 019°12'16016.0 050 / 351018.510.8 14.511.815.0
2017-Apr-19 08:00N 40°06' W 021°48'15417.0 030 / 311019.610.8 13.811.016.0
2017-Apr-18 22:54N 38°23' W 024°16'717.0
2017-Apr-18 22:30N 38°18' W 024°22'917.2
2017-Apr-18 22:00N 38°12' W 024°30'917.4
2017-Apr-18 21:30N 38°05' W 024°37'917.6
2017-Apr-18 21:00N 37°59' W 024°45'917.8
2017-Apr-18 20:30N 37°53' W 024°53'917.4
2017-Apr-18 20:00N 37°47' W 025°01'816.7
2017-Apr-18 19:30N 37°41' W 025°09'917.3
2017-Apr-18 19:00N 37°41' W 025°20'816.7
2017-Apr-18 18:31N 37°41' W 025°30'714.5
2017-Apr-18 18:01N 37°44' W 025°38'1 2.2
2017-Apr-18 17:30N 37°44' W 025°40'0 0.0
2017-Apr-18 17:00N 37°44' W 025°40'0 0.0
2017-Apr-18 16:30N 37°44' W 025°40'0 0.0
2017-Apr-18 16:00N 37°44' W 025°40'0 0.0
2017-Apr-18 15:30N 37°44' W 025°40'0 0.0
2017-Apr-18 15:00N 37°44' W 025°40'0 0.0
2017-Apr-18 14:30N 37°44' W 025°40'0 0.0
2017-Apr-18 13:31N 37°44' W 025°40'0 0.0
2017-Apr-18 13:00N 37°44' W 025°40'0 0.0
2017-Apr-18 12:30N 37°44' W 025°40'0 0.0
2017-Apr-18 12:00N 37°44' W 025°40'0 0.0
2017-Apr-18 11:31N 37°44' W 025°40'0 0.0
2017-Apr-18 11:00N 37°44' W 025°40'0 0.0
2017-Apr-18 10:30N 37°44' W 025°40'0 0.0
2017-Apr-18 10:00N 37°44' W 025°40'0 0.0
2017-Apr-18 09:31N 37°44' W 025°40'0 0.0
2017-Apr-18 09:00N 37°44' W 025°40'0 0.0
2017-Apr-18 08:30N 37°44' W 025°40'0 0.0
2017-Apr-18 08:00N 37°44' W 025°40'0 0.3
2017-Apr-18 07:31N 37°44' W 025°40'1 2.1
2017-Apr-18 07:00N 37°43' W 025°39'611.3
2017-Apr-18 06:30N 37°39' W 025°44'815.7
2017-Apr-18 06:00N 37°35' W 025°53'815.7
2017-Apr-18 05:30N 37°31' W 026°01'815.9
2017-Apr-18 05:01N 37°27' W 026°10'917.4
2017-Apr-18 04:30N 37°23' W 026°20'917.2
2017-Apr-18 04:00N 37°19' W 026°29'917.0
2017-Apr-18 03:30N 37°14' W 026°38'917.1
2017-Apr-18 03:00N 37°10' W 026°47'817.0
2017-Apr-18 02:30N 37°06' W 026°57'816.7
2017-Apr-18 02:00N 37°02' W 027°06'1016.8
2017-Apr-18 01:26N 36°57' W 027°16'716.6
2017-Apr-18 01:00N 36°53' W 027°24'816.7
2017-Apr-18 00:30N 36°49' W 027°33'1416.9
2017-Apr-17 23:40N 36°42' W 027°48'716.8
2017-Apr-17 23:17N 36°38' W 027°55'23716.6
2017-Apr-17 09:00N 34°30' W 032°00'19616.4 140 / 171017.510.8 18.015.119.0
2017-Apr-16 21:00N 32°36' W 035°12'18717.0 150 / 251015.310.8 19.716.520.0
2017-Apr-16 10:00N 30°48' W 038°12'   160 / 231015.210.8 19.715.120.0

Dump ship's entire track history